sensor_id;sensor_type;location;lat;lon;timestamp;P1;durP1;ratioP1;P2;durP2;ratioP2
55065;SDS011;40964;42.114;24.220;2022-12-20T00:02:23;20.83;;;9.55;;
55065;SDS011;40964;42.114;24.220;2022-12-20T00:04:49;23.52;;;10.25;;
55065;SDS011;40964;42.114;24.220;2022-12-20T00:07:15;20.67;;;9.65;;
55065;SDS011;40964;42.114;24.220;2022-12-20T00:09:40;20.85;;;9.57;;
55065;SDS011;40964;42.114;24.220;2022-12-20T00:12:06;23.70;;;9.63;;
55065;SDS011;40964;42.114;24.220;2022-12-20T00:14:31;19.38;;;8.50;;
55065;SDS011;40964;42.114;24.220;2022-12-20T00:16:57;22.65;;;10.35;;
55065;SDS011;40964;42.114;24.220;2022-12-20T00:19:22;21.25;;;9.20;;
55065;SDS011;40964;42.114;24.220;2022-12-20T00:21:48;21.20;;;9.38;;
55065;SDS011;40964;42.114;24.220;2022-12-20T00:24:13;23.92;;;9.60;;
55065;SDS011;40964;42.114;24.220;2022-12-20T00:26:39;21.15;;;9.73;;
55065;SDS011;40964;42.114;24.220;2022-12-20T00:29:04;23.17;;;9.80;;
55065;SDS011;40964;42.114;24.220;2022-12-20T00:31:31;24.10;;;9.52;;
55065;SDS011;40964;42.114;24.220;2022-12-20T00:33:57;27.65;;;11.63;;
55065;SDS011;40964;42.114;24.220;2022-12-20T00:36:25;23.63;;;9.88;;
55065;SDS011;40964;42.114;24.220;2022-12-20T00:38:53;21.20;;;9.45;;
55065;SDS011;40964;42.114;24.220;2022-12-20T00:41:24;24.63;;;9.73;;
55065;SDS011;40964;42.114;24.220;2022-12-20T00:43:54;28.30;;;11.25;;
55065;SDS011;40964;42.114;24.220;2022-12-20T00:46:20;26.70;;;12.93;;
55065;SDS011;40964;42.114;24.220;2022-12-20T00:48:47;21.98;;;10.05;;
55065;SDS011;40964;42.114;24.220;2022-12-20T00:51:14;34.00;;;11.23;;
55065;SDS011;40964;42.114;24.220;2022-12-20T00:53:43;27.38;;;11.50;;
55065;SDS011;40964;42.114;24.220;2022-12-20T00:56:09;22.35;;;9.57;;
55065;SDS011;40964;42.114;24.220;2022-12-20T00:58:36;31.85;;;11.23;;
55065;SDS011;40964;42.114;24.220;2022-12-20T01:01:04;24.23;;;10.52;;
55065;SDS011;40964;42.114;24.220;2022-12-20T01:03:31;24.17;;;10.77;;
55065;SDS011;40964;42.114;24.220;2022-12-20T01:05:57;22.52;;;10.23;;
55065;SDS011;40964;42.114;24.220;2022-12-20T01:08:25;26.73;;;9.80;;
55065;SDS011;40964;42.114;24.220;2022-12-20T01:13:23;32.03;;;11.98;;
55065;SDS011;40964;42.114;24.220;2022-12-20T01:15:48;25.35;;;11.40;;
55065;SDS011;40964;42.114;24.220;2022-12-20T01:18:14;26.90;;;11.85;;
55065;SDS011;40964;42.114;24.220;2022-12-20T01:20:39;24.67;;;10.93;;
55065;SDS011;40964;42.114;24.220;2022-12-20T01:23:05;26.55;;;11.30;;
55065;SDS011;40964;42.114;24.220;2022-12-20T01:25:30;29.50;;;12.23;;
55065;SDS011;40964;42.114;24.220;2022-12-20T01:27:56;28.15;;;11.30;;
55065;SDS011;40964;42.114;24.220;2022-12-20T01:30:21;24.50;;;11.55;;
55065;SDS011;40964;42.114;24.220;2022-12-20T01:32:47;29.92;;;11.85;;
55065;SDS011;40964;42.114;24.220;2022-12-20T01:35:12;27.65;;;12.60;;
55065;SDS011;40964;42.114;24.220;2022-12-20T01:37:38;34.40;;;12.55;;
55065;SDS011;40964;42.114;24.220;2022-12-20T01:40:03;28.85;;;10.93;;
55065;SDS011;40964;42.114;24.220;2022-12-20T01:42:29;28.60;;;11.77;;
55065;SDS011;40964;42.114;24.220;2022-12-20T01:44:56;24.77;;;10.85;;
55065;SDS011;40964;42.114;24.220;2022-12-20T01:47:22;20.73;;;10.35;;
55065;SDS011;40964;42.114;24.220;2022-12-20T01:49:50;19.08;;;10.15;;
55065;SDS011;40964;42.114;24.220;2022-12-20T01:52:35;22.95;;;10.65;;
55065;SDS011;40964;42.114;24.220;2022-12-20T01:58:01;20.50;;;9.10;;
55065;SDS011;40964;42.114;24.220;2022-12-20T02:00:29;20.77;;;9.20;;
55065;SDS011;40964;42.114;24.220;2022-12-20T02:02:55;24.55;;;11.10;;
55065;SDS011;40964;42.114;24.220;2022-12-20T02:05:24;19.23;;;9.63;;
55065;SDS011;40964;42.114;24.220;2022-12-20T02:07:50;20.17;;;9.38;;
55065;SDS011;40964;42.114;24.220;2022-12-20T02:10:19;23.25;;;9.45;;
55065;SDS011;40964;42.114;24.220;2022-12-20T02:12:48;25.98;;;9.07;;
55065;SDS011;40964;42.114;24.220;2022-12-20T02:15:34;22.83;;;10.20;;
55065;SDS011;40964;42.114;24.220;2022-12-20T02:29:11;20.08;;;9.98;;
55065;SDS011;40964;42.114;24.220;2022-12-20T02:31:54;22.08;;;9.00;;
55065;SDS011;40964;42.114;24.220;2022-12-20T02:34:26;24.88;;;9.27;;
55065;SDS011;40964;42.114;24.220;2022-12-20T02:36:55;21.65;;;9.80;;
55065;SDS011;40964;42.114;24.220;2022-12-20T02:39:21;26.95;;;9.05;;
55065;SDS011;40964;42.114;24.220;2022-12-20T02:41:51;23.20;;;9.90;;
55065;SDS011;40964;42.114;24.220;2022-12-20T02:44:30;22.88;;;9.98;;
55065;SDS011;40964;42.114;24.220;2022-12-20T02:47:18;24.20;;;9.95;;
55065;SDS011;40964;42.114;24.220;2022-12-20T02:49:48;26.40;;;9.80;;
55065;SDS011;40964;42.114;24.220;2022-12-20T02:52:15;26.60;;;9.15;;
55065;SDS011;40964;42.114;24.220;2022-12-20T02:54:42;21.60;;;9.88;;
55065;SDS011;40964;42.114;24.220;2022-12-20T02:57:15;20.15;;;8.88;;
55065;SDS011;40964;42.114;24.220;2022-12-20T02:59:53;17.20;;;8.38;;
55065;SDS011;40964;42.114;24.220;2022-12-20T03:02:30;20.35;;;9.02;;
55065;SDS011;40964;42.114;24.220;2022-12-20T03:05:20;23.73;;;9.93;;
55065;SDS011;40964;42.114;24.220;2022-12-20T03:07:48;25.35;;;10.65;;
55065;SDS011;40964;42.114;24.220;2022-12-20T03:10:14;22.45;;;8.80;;
55065;SDS011;40964;42.114;24.220;2022-12-20T03:12:49;18.92;;;9.15;;
55065;SDS011;40964;42.114;24.220;2022-12-20T03:15:14;20.02;;;8.48;;
55065;SDS011;40964;42.114;24.220;2022-12-20T03:17:40;25.30;;;9.40;;
55065;SDS011;40964;42.114;24.220;2022-12-20T03:20:06;21.90;;;8.60;;
55065;SDS011;40964;42.114;24.220;2022-12-20T03:22:32;19.23;;;8.30;;
55065;SDS011;40964;42.114;24.220;2022-12-20T03:24:58;24.67;;;9.32;;
55065;SDS011;40964;42.114;24.220;2022-12-20T03:27:25;20.42;;;7.32;;
55065;SDS011;40964;42.114;24.220;2022-12-20T03:29:52;24.33;;;9.25;;
55065;SDS011;40964;42.114;24.220;2022-12-20T03:32:18;26.65;;;8.85;;
55065;SDS011;40964;42.114;24.220;2022-12-20T03:34:43;25.17;;;9.40;;
55065;SDS011;40964;42.114;24.220;2022-12-20T03:37:09;22.13;;;9.40;;
55065;SDS011;40964;42.114;24.220;2022-12-20T03:39:34;22.60;;;9.10;;
55065;SDS011;40964;42.114;24.220;2022-12-20T03:42:00;19.17;;;8.52;;
55065;SDS011;40964;42.114;24.220;2022-12-20T03:44:25;20.23;;;9.38;;
55065;SDS011;40964;42.114;24.220;2022-12-20T03:46:51;18.20;;;8.48;;
55065;SDS011;40964;42.114;24.220;2022-12-20T03:49:16;23.77;;;9.93;;
55065;SDS011;40964;42.114;24.220;2022-12-20T03:51:42;21.23;;;8.63;;
55065;SDS011;40964;42.114;24.220;2022-12-20T03:54:08;22.60;;;8.55;;
55065;SDS011;40964;42.114;24.220;2022-12-20T03:56:33;21.42;;;9.07;;
55065;SDS011;40964;42.114;24.220;2022-12-20T03:58:59;24.77;;;9.10;;
55065;SDS011;40964;42.114;24.220;2022-12-20T04:01:25;17.77;;;7.75;;
55065;SDS011;40964;42.114;24.220;2022-12-20T04:03:53;19.40;;;8.65;;
55065;SDS011;40964;42.114;24.220;2022-12-20T04:06:19;22.05;;;9.82;;
55065;SDS011;40964;42.114;24.220;2022-12-20T04:08:46;20.00;;;8.88;;
55065;SDS011;40964;42.114;24.220;2022-12-20T04:11:11;21.13;;;7.63;;
55065;SDS011;40964;42.114;24.220;2022-12-20T04:13:41;18.08;;;8.55;;
55065;SDS011;40964;42.114;24.220;2022-12-20T04:16:14;17.13;;;7.95;;
55065;SDS011;40964;42.114;24.220;2022-12-20T04:18:41;19.23;;;9.10;;
55065;SDS011;40964;42.114;24.220;2022-12-20T04:21:07;18.48;;;8.27;;
55065;SDS011;40964;42.114;24.220;2022-12-20T04:23:35;21.40;;;9.00;;
55065;SDS011;40964;42.114;24.220;2022-12-20T04:26:02;20.60;;;9.63;;
55065;SDS011;40964;42.114;24.220;2022-12-20T04:28:29;24.50;;;10.60;;
55065;SDS011;40964;42.114;24.220;2022-12-20T04:30:55;24.55;;;10.05;;
55065;SDS011;40964;42.114;24.220;2022-12-20T04:33:21;24.75;;;9.43;;
55065;SDS011;40964;42.114;24.220;2022-12-20T04:35:47;20.38;;;9.50;;
55065;SDS011;40964;42.114;24.220;2022-12-20T04:38:13;22.33;;;9.95;;
55065;SDS011;40964;42.114;24.220;2022-12-20T04:40:39;29.75;;;10.15;;
55065;SDS011;40964;42.114;24.220;2022-12-20T04:43:04;23.52;;;9.48;;
55065;SDS011;40964;42.114;24.220;2022-12-20T04:45:30;22.33;;;10.18;;
55065;SDS011;40964;42.114;24.220;2022-12-20T04:47:55;21.73;;;10.93;;
55065;SDS011;40964;42.114;24.220;2022-12-20T04:50:21;17.63;;;8.98;;
55065;SDS011;40964;42.114;24.220;2022-12-20T04:52:46;23.20;;;9.40;;
55065;SDS011;40964;42.114;24.220;2022-12-20T04:55:30;21.65;;;9.50;;
55065;SDS011;40964;42.114;24.220;2022-12-20T04:58:00;23.27;;;9.95;;
55065;SDS011;40964;42.114;24.220;2022-12-20T05:00:25;21.95;;;10.15;;
55065;SDS011;40964;42.114;24.220;2022-12-20T05:02:51;18.75;;;7.90;;
55065;SDS011;40964;42.114;24.220;2022-12-20T05:05:16;24.23;;;8.48;;
55065;SDS011;40964;42.114;24.220;2022-12-20T05:07:42;16.08;;;7.28;;
55065;SDS011;40964;42.114;24.220;2022-12-20T05:10:07;21.58;;;10.00;;
55065;SDS011;40964;42.114;24.220;2022-12-20T05:12:33;16.27;;;7.75;;
55065;SDS011;40964;42.114;24.220;2022-12-20T05:14:58;21.63;;;8.70;;
55065;SDS011;40964;42.114;24.220;2022-12-20T05:17:24;18.10;;;7.90;;
55065;SDS011;40964;42.114;24.220;2022-12-20T05:19:49;17.27;;;8.68;;
55065;SDS011;40964;42.114;24.220;2022-12-20T05:22:15;24.48;;;9.30;;
55065;SDS011;40964;42.114;24.220;2022-12-20T05:24:58;25.85;;;9.85;;
55065;SDS011;40964;42.114;24.220;2022-12-20T05:27:42;21.88;;;9.18;;
55065;SDS011;40964;42.114;24.220;2022-12-20T05:30:08;29.63;;;10.10;;
55065;SDS011;40964;42.114;24.220;2022-12-20T05:32:33;21.98;;;10.20;;
55065;SDS011;40964;42.114;24.220;2022-12-20T05:34:59;20.90;;;9.30;;
55065;SDS011;40964;42.114;24.220;2022-12-20T05:37:24;19.45;;;7.25;;
55065;SDS011;40964;42.114;24.220;2022-12-20T05:39:50;20.65;;;8.15;;
55065;SDS011;40964;42.114;24.220;2022-12-20T05:42:15;21.17;;;7.82;;
55065;SDS011;40964;42.114;24.220;2022-12-20T05:44:41;27.10;;;9.10;;
55065;SDS011;40964;42.114;24.220;2022-12-20T05:47:06;18.05;;;7.65;;
55065;SDS011;40964;42.114;24.220;2022-12-20T05:49:32;11.73;;;6.72;;
55065;SDS011;40964;42.114;24.220;2022-12-20T05:51:59;14.88;;;6.95;;
55065;SDS011;40964;42.114;24.220;2022-12-20T05:54:25;18.52;;;8.10;;
55065;SDS011;40964;42.114;24.220;2022-12-20T05:56:51;24.02;;;9.70;;
55065;SDS011;40964;42.114;24.220;2022-12-20T05:59:16;19.83;;;9.02;;
55065;SDS011;40964;42.114;24.220;2022-12-20T06:01:42;24.40;;;9.05;;
55065;SDS011;40964;42.114;24.220;2022-12-20T06:04:08;22.17;;;10.35;;
55065;SDS011;40964;42.114;24.220;2022-12-20T06:06:33;13.70;;;7.55;;
55065;SDS011;40964;42.114;24.220;2022-12-20T06:08:59;15.13;;;7.68;;
55065;SDS011;40964;42.114;24.220;2022-12-20T06:11:25;17.35;;;9.02;;
55065;SDS011;40964;42.114;24.220;2022-12-20T06:13:50;23.05;;;9.90;;
55065;SDS011;40964;42.114;24.220;2022-12-20T06:16:16;23.45;;;10.45;;
55065;SDS011;40964;42.114;24.220;2022-12-20T06:18:44;26.50;;;10.57;;
55065;SDS011;40964;42.114;24.220;2022-12-20T06:21:10;74.78;;;27.95;;
55065;SDS011;40964;42.114;24.220;2022-12-20T06:23:36;20.23;;;9.43;;
55065;SDS011;40964;42.114;24.220;2022-12-20T06:26:04;16.48;;;8.00;;
55065;SDS011;40964;42.114;24.220;2022-12-20T06:28:33;12.80;;;6.43;;
55065;SDS011;40964;42.114;24.220;2022-12-20T06:30:58;18.15;;;7.28;;
55065;SDS011;40964;42.114;24.220;2022-12-20T06:33:24;15.20;;;7.63;;
55065;SDS011;40964;42.114;24.220;2022-12-20T06:35:50;17.60;;;8.52;;
55065;SDS011;40964;42.114;24.220;2022-12-20T06:38:16;21.33;;;9.35;;
55065;SDS011;40964;42.114;24.220;2022-12-20T06:40:42;25.40;;;9.98;;
55065;SDS011;40964;42.114;24.220;2022-12-20T06:43:07;26.83;;;10.40;;
55065;SDS011;40964;42.114;24.220;2022-12-20T06:45:33;26.70;;;9.70;;
55065;SDS011;40964;42.114;24.220;2022-12-20T06:47:58;22.85;;;9.82;;
55065;SDS011;40964;42.114;24.220;2022-12-20T06:50:24;25.92;;;10.20;;
55065;SDS011;40964;42.114;24.220;2022-12-20T06:52:50;24.13;;;9.57;;
55065;SDS011;40964;42.114;24.220;2022-12-20T06:55:16;30.48;;;11.45;;
55065;SDS011;40964;42.114;24.220;2022-12-20T06:57:41;23.05;;;11.18;;
55065;SDS011;40964;42.114;24.220;2022-12-20T07:00:07;26.83;;;11.95;;
55065;SDS011;40964;42.114;24.220;2022-12-20T07:02:34;33.83;;;10.98;;
55065;SDS011;40964;42.114;24.220;2022-12-20T07:04:59;35.00;;;11.90;;
55065;SDS011;40964;42.114;24.220;2022-12-20T07:07:25;22.73;;;9.25;;
55065;SDS011;40964;42.114;24.220;2022-12-20T07:09:50;23.45;;;9.65;;
55065;SDS011;40964;42.114;24.220;2022-12-20T07:12:16;24.80;;;10.70;;
55065;SDS011;40964;42.114;24.220;2022-12-20T07:14:41;23.15;;;10.30;;
55065;SDS011;40964;42.114;24.220;2022-12-20T07:17:07;17.73;;;8.60;;
55065;SDS011;40964;42.114;24.220;2022-12-20T07:19:33;28.98;;;10.40;;
55065;SDS011;40964;42.114;24.220;2022-12-20T07:22:00;21.98;;;9.15;;
55065;SDS011;40964;42.114;24.220;2022-12-20T07:24:26;19.77;;;7.82;;
55065;SDS011;40964;42.114;24.220;2022-12-20T07:26:51;23.65;;;9.02;;
55065;SDS011;40964;42.114;24.220;2022-12-20T07:29:17;27.35;;;9.10;;
55065;SDS011;40964;42.114;24.220;2022-12-20T07:31:42;27.60;;;10.73;;
55065;SDS011;40964;42.114;24.220;2022-12-20T07:34:08;22.10;;;9.48;;
55065;SDS011;40964;42.114;24.220;2022-12-20T07:36:33;28.02;;;10.13;;
55065;SDS011;40964;42.114;24.220;2022-12-20T07:38:59;20.27;;;9.90;;
55065;SDS011;40964;42.114;24.220;2022-12-20T07:41:25;28.80;;;9.73;;
55065;SDS011;40964;42.114;24.220;2022-12-20T07:43:50;29.38;;;12.07;;
55065;SDS011;40964;42.114;24.220;2022-12-20T07:46:16;25.20;;;10.70;;
55065;SDS011;40964;42.114;24.220;2022-12-20T07:48:42;35.03;;;14.15;;
55065;SDS011;40964;42.114;24.220;2022-12-20T07:51:18;30.52;;;11.25;;
55065;SDS011;40964;42.114;24.220;2022-12-20T07:54:03;28.10;;;11.75;;
55065;SDS011;40964;42.114;24.220;2022-12-20T07:56:39;27.58;;;9.98;;
55065;SDS011;40964;42.114;24.220;2022-12-20T07:59:10;27.65;;;10.35;;
55065;SDS011;40964;42.114;24.220;2022-12-20T08:01:40;27.00;;;10.82;;
55065;SDS011;40964;42.114;24.220;2022-12-20T08:04:10;19.73;;;10.13;;
55065;SDS011;40964;42.114;24.220;2022-12-20T08:06:39;22.90;;;8.60;;
55065;SDS011;40964;42.114;24.220;2022-12-20T08:09:06;28.88;;;11.93;;
55065;SDS011;40964;42.114;24.220;2022-12-20T08:11:36;29.40;;;11.30;;
55065;SDS011;40964;42.114;24.220;2022-12-20T08:14:04;28.65;;;11.57;;
55065;SDS011;40964;42.114;24.220;2022-12-20T08:16:31;26.67;;;10.15;;
55065;SDS011;40964;42.114;24.220;2022-12-20T08:18:56;25.42;;;11.43;;
55065;SDS011;40964;42.114;24.220;2022-12-20T08:21:22;30.02;;;12.48;;
55065;SDS011;40964;42.114;24.220;2022-12-20T08:23:47;25.40;;;10.32;;
55065;SDS011;40964;42.114;24.220;2022-12-20T08:26:13;30.08;;;13.30;;
55065;SDS011;40964;42.114;24.220;2022-12-20T08:28:38;34.42;;;13.50;;
55065;SDS011;40964;42.114;24.220;2022-12-20T08:31:05;22.73;;;11.65;;
55065;SDS011;40964;42.114;24.220;2022-12-20T08:33:32;25.77;;;11.60;;
55065;SDS011;40964;42.114;24.220;2022-12-20T08:35:59;30.00;;;12.43;;
55065;SDS011;40964;42.114;24.220;2022-12-20T08:38:29;33.25;;;11.57;;
55065;SDS011;40964;42.114;24.220;2022-12-20T08:41:00;34.28;;;12.95;;
55065;SDS011;40964;42.114;24.220;2022-12-20T08:43:30;21.77;;;8.77;;
55065;SDS011;40964;42.114;24.220;2022-12-20T08:45:58;27.10;;;11.93;;
55065;SDS011;40964;42.114;24.220;2022-12-20T08:48:24;34.15;;;10.50;;
55065;SDS011;40964;42.114;24.220;2022-12-20T08:50:54;25.23;;;11.10;;
55065;SDS011;40964;42.114;24.220;2022-12-20T08:53:21;27.70;;;10.95;;
55065;SDS011;40964;42.114;24.220;2022-12-20T08:55:47;40.22;;;17.40;;
55065;SDS011;40964;42.114;24.220;2022-12-20T08:58:12;38.88;;;12.05;;
55065;SDS011;40964;42.114;24.220;2022-12-20T09:00:37;42.33;;;15.43;;
55065;SDS011;40964;42.114;24.220;2022-12-20T09:03:03;29.55;;;14.55;;
55065;SDS011;40964;42.114;24.220;2022-12-20T09:05:28;22.20;;;9.25;;
55065;SDS011;40964;42.114;24.220;2022-12-20T09:07:54;26.38;;;12.32;;
55065;SDS011;40964;42.114;24.220;2022-12-20T09:10:19;26.45;;;10.80;;
55065;SDS011;40964;42.114;24.220;2022-12-20T09:12:45;32.42;;;11.85;;
55065;SDS011;40964;42.114;24.220;2022-12-20T09:15:10;24.13;;;11.57;;
55065;SDS011;40964;42.114;24.220;2022-12-20T09:17:36;27.88;;;12.02;;
55065;SDS011;40964;42.114;24.220;2022-12-20T09:20:04;26.20;;;12.48;;
55065;SDS011;40964;42.114;24.220;2022-12-20T09:22:30;22.77;;;10.85;;
55065;SDS011;40964;42.114;24.220;2022-12-20T09:24:56;25.98;;;12.25;;
55065;SDS011;40964;42.114;24.220;2022-12-20T09:27:22;24.65;;;10.50;;
55065;SDS011;40964;42.114;24.220;2022-12-20T09:29:47;29.80;;;11.40;;
55065;SDS011;40964;42.114;24.220;2022-12-20T09:32:13;24.95;;;11.43;;
55065;SDS011;40964;42.114;24.220;2022-12-20T09:34:38;31.35;;;12.88;;
55065;SDS011;40964;42.114;24.220;2022-12-20T09:37:04;40.55;;;14.02;;
55065;SDS011;40964;42.114;24.220;2022-12-20T09:39:29;38.72;;;13.05;;
55065;SDS011;40964;42.114;24.220;2022-12-20T09:41:56;36.80;;;16.15;;
55065;SDS011;40964;42.114;24.220;2022-12-20T09:44:26;39.67;;;19.50;;
55065;SDS011;40964;42.114;24.220;2022-12-20T09:47:00;34.38;;;13.00;;
55065;SDS011;40964;42.114;24.220;2022-12-20T09:49:32;38.35;;;12.52;;
55065;SDS011;40964;42.114;24.220;2022-12-20T10:00:23;29.58;;;11.80;;
55065;SDS011;40964;42.114;24.220;2022-12-20T10:02:48;34.63;;;12.35;;
55065;SDS011;40964;42.114;24.220;2022-12-20T10:05:15;26.45;;;11.88;;
55065;SDS011;40964;42.114;24.220;2022-12-20T10:08:11;28.58;;;13.85;;
55065;SDS011;40964;42.114;24.220;2022-12-20T10:13:52;33.33;;;12.80;;
55065;SDS011;40964;42.114;24.220;2022-12-20T10:24:09;32.13;;;12.80;;
55065;SDS011;40964;42.114;24.220;2022-12-20T10:26:41;28.92;;;11.27;;
55065;SDS011;40964;42.114;24.220;2022-12-20T10:29:07;25.52;;;10.88;;
55065;SDS011;40964;42.114;24.220;2022-12-20T10:31:33;22.88;;;10.32;;
55065;SDS011;40964;42.114;24.220;2022-12-20T10:34:00;18.60;;;9.00;;
55065;SDS011;40964;42.114;24.220;2022-12-20T10:36:29;19.27;;;8.73;;
55065;SDS011;40964;42.114;24.220;2022-12-20T10:38:57;23.42;;;10.40;;
55065;SDS011;40964;42.114;24.220;2022-12-20T10:41:26;24.67;;;10.43;;
55065;SDS011;40964;42.114;24.220;2022-12-20T10:44:04;23.30;;;9.10;;
55065;SDS011;40964;42.114;24.220;2022-12-20T10:46:49;24.17;;;10.77;;
55065;SDS011;40964;42.114;24.220;2022-12-20T10:49:26;25.60;;;10.13;;
55065;SDS011;40964;42.114;24.220;2022-12-20T10:52:02;26.23;;;10.77;;
55065;SDS011;40964;42.114;24.220;2022-12-20T10:54:41;25.38;;;10.07;;
55065;SDS011;40964;42.114;24.220;2022-12-20T11:00:06;23.75;;;9.65;;
55065;SDS011;40964;42.114;24.220;2022-12-20T11:05:37;19.45;;;8.18;;
55065;SDS011;40964;42.114;24.220;2022-12-20T11:08:11;21.00;;;8.48;;
55065;SDS011;40964;42.114;24.220;2022-12-20T11:10:40;28.17;;;12.23;;
55065;SDS011;40964;42.114;24.220;2022-12-20T11:13:05;21.00;;;8.95;;
55065;SDS011;40964;42.114;24.220;2022-12-20T11:15:47;21.50;;;9.65;;
55065;SDS011;40964;42.114;24.220;2022-12-20T11:23:42;39.40;;;12.15;;
55065;SDS011;40964;42.114;24.220;2022-12-20T11:28:52;22.75;;;8.85;;
55065;SDS011;40964;42.114;24.220;2022-12-20T11:42:08;29.90;;;12.55;;
55065;SDS011;40964;42.114;24.220;2022-12-20T11:48:02;24.98;;;10.43;;
55065;SDS011;40964;42.114;24.220;2022-12-20T11:56:11;17.10;;;6.70;;
55065;SDS011;40964;42.114;24.220;2022-12-20T11:58:56;21.83;;;8.45;;
55065;SDS011;40964;42.114;24.220;2022-12-20T12:01:31;17.00;;;7.72;;
55065;SDS011;40964;42.114;24.220;2022-12-20T12:06:45;16.77;;;7.32;;
55065;SDS011;40964;42.114;24.220;2022-12-20T12:09:35;18.90;;;8.35;;
55065;SDS011;40964;42.114;24.220;2022-12-20T12:12:09;19.15;;;8.52;;
55065;SDS011;40964;42.114;24.220;2022-12-20T12:25:47;21.90;;;7.63;;
55065;SDS011;40964;42.114;24.220;2022-12-20T12:28:13;16.50;;;7.28;;
55065;SDS011;40964;42.114;24.220;2022-12-20T12:30:58;15.85;;;6.90;;
55065;SDS011;40964;42.114;24.220;2022-12-20T12:33:34;19.55;;;7.95;;
55065;SDS011;40964;42.114;24.220;2022-12-20T12:36:15;13.85;;;6.32;;
55065;SDS011;40964;42.114;24.220;2022-12-20T12:42:19;19.23;;;7.57;;
55065;SDS011;40964;42.114;24.220;2022-12-20T12:45:06;15.73;;;7.13;;
55065;SDS011;40964;42.114;24.220;2022-12-20T12:47:41;18.13;;;6.57;;
55065;SDS011;40964;42.114;24.220;2022-12-20T12:55:56;12.25;;;5.53;;
55065;SDS011;40964;42.114;24.220;2022-12-20T13:09:09;13.95;;;6.82;;
55065;SDS011;40964;42.114;24.220;2022-12-20T13:11:43;19.02;;;7.72;;
55065;SDS011;40964;42.114;24.220;2022-12-20T13:24:38;13.25;;;5.43;;
55065;SDS011;40964;42.114;24.220;2022-12-20T13:27:22;18.90;;;7.25;;
55065;SDS011;40964;42.114;24.220;2022-12-20T13:29:52;15.63;;;6.25;;
55065;SDS011;40964;42.114;24.220;2022-12-20T13:37:55;35.40;;;14.43;;
55065;SDS011;40964;42.114;24.220;2022-12-20T13:45:48;30.67;;;11.60;;
55065;SDS011;40964;42.114;24.220;2022-12-20T13:49:02;33.88;;;12.68;;
55065;SDS011;40964;42.114;24.220;2022-12-20T13:51:16;20.00;;;8.85;;
55065;SDS011;40964;42.114;24.220;2022-12-20T13:54:02;28.52;;;11.15;;
55065;SDS011;40964;42.114;24.220;2022-12-20T13:59:51;34.53;;;13.38;;
55065;SDS011;40964;42.114;24.220;2022-12-20T14:01:59;38.92;;;15.05;;
55065;SDS011;40964;42.114;24.220;2022-12-20T14:04:27;66.97;;;22.88;;
55065;SDS011;40964;42.114;24.220;2022-12-20T14:07:05;71.57;;;26.38;;
55065;SDS011;40964;42.114;24.220;2022-12-20T14:09:35;51.25;;;18.90;;
55065;SDS011;40964;42.114;24.220;2022-12-20T14:12:05;56.67;;;18.85;;
55065;SDS011;40964;42.114;24.220;2022-12-20T14:14:37;42.92;;;14.18;;
55065;SDS011;40964;42.114;24.220;2022-12-20T14:20:05;36.35;;;14.40;;
55065;SDS011;40964;42.114;24.220;2022-12-20T14:22:41;42.55;;;15.82;;
55065;SDS011;40964;42.114;24.220;2022-12-20T14:25:16;48.35;;;17.55;;
55065;SDS011;40964;42.114;24.220;2022-12-20T14:27:48;43.97;;;15.85;;
55065;SDS011;40964;42.114;24.220;2022-12-20T14:30:25;39.83;;;16.05;;
55065;SDS011;40964;42.114;24.220;2022-12-20T14:32:53;38.85;;;14.43;;
55065;SDS011;40964;42.114;24.220;2022-12-20T14:35:20;42.50;;;15.65;;
55065;SDS011;40964;42.114;24.220;2022-12-20T14:37:57;32.78;;;13.25;;
55065;SDS011;40964;42.114;24.220;2022-12-20T14:40:24;32.50;;;13.65;;
55065;SDS011;40964;42.114;24.220;2022-12-20T14:42:51;31.92;;;12.32;;
55065;SDS011;40964;42.114;24.220;2022-12-20T14:45:22;33.90;;;13.55;;
55065;SDS011;40964;42.114;24.220;2022-12-20T14:55:43;23.38;;;8.43;;
55065;SDS011;40964;42.114;24.220;2022-12-20T14:58:23;26.42;;;9.82;;
55065;SDS011;40964;42.114;24.220;2022-12-20T15:00:59;19.77;;;7.85;;
55065;SDS011;40964;42.114;24.220;2022-12-20T15:03:46;22.95;;;10.00;;
55065;SDS011;40964;42.114;24.220;2022-12-20T15:06:29;19.23;;;6.82;;
55065;SDS011;40964;42.114;24.220;2022-12-20T15:09:00;17.02;;;6.68;;
55065;SDS011;40964;42.114;24.220;2022-12-20T15:11:26;18.52;;;5.80;;
55065;SDS011;40964;42.114;24.220;2022-12-20T15:13:52;23.50;;;8.82;;
55065;SDS011;40964;42.114;24.220;2022-12-20T15:16:23;15.35;;;7.68;;
55065;SDS011;40964;42.114;24.220;2022-12-20T15:18:51;15.48;;;6.13;;
55065;SDS011;40964;42.114;24.220;2022-12-20T15:21:31;15.82;;;6.50;;
55065;SDS011;40964;42.114;24.220;2022-12-20T15:24:00;17.27;;;7.82;;
55065;SDS011;40964;42.114;24.220;2022-12-20T15:26:28;13.70;;;5.72;;
55065;SDS011;40964;42.114;24.220;2022-12-20T15:28:55;16.40;;;7.22;;
55065;SDS011;40964;42.114;24.220;2022-12-20T15:31:22;42.17;;;12.35;;
55065;SDS011;40964;42.114;24.220;2022-12-20T15:33:49;24.10;;;9.57;;
55065;SDS011;40964;42.114;24.220;2022-12-20T15:36:16;20.15;;;8.73;;
55065;SDS011;40964;42.114;24.220;2022-12-20T15:38:45;18.42;;;6.88;;
55065;SDS011;40964;42.114;24.220;2022-12-20T15:41:21;15.88;;;7.20;;
55065;SDS011;40964;42.114;24.220;2022-12-20T15:44:02;15.95;;;6.85;;
55065;SDS011;40964;42.114;24.220;2022-12-20T15:46:30;32.90;;;11.43;;
55065;SDS011;40964;42.114;24.220;2022-12-20T15:48:56;24.50;;;9.52;;
55065;SDS011;40964;42.114;24.220;2022-12-20T15:51:35;28.00;;;10.05;;
55065;SDS011;40964;42.114;24.220;2022-12-20T15:54:06;29.50;;;10.93;;
55065;SDS011;40964;42.114;24.220;2022-12-20T15:56:38;26.40;;;9.88;;
55065;SDS011;40964;42.114;24.220;2022-12-20T15:59:03;35.55;;;13.57;;
55065;SDS011;40964;42.114;24.220;2022-12-20T16:01:47;36.15;;;13.77;;
55065;SDS011;40964;42.114;24.220;2022-12-20T16:04:14;37.78;;;14.38;;
55065;SDS011;40964;42.114;24.220;2022-12-20T16:06:45;30.42;;;11.63;;
55065;SDS011;40964;42.114;24.220;2022-12-20T16:09:12;19.55;;;7.70;;
55065;SDS011;40964;42.114;24.220;2022-12-20T16:11:38;11.15;;;5.35;;
55065;SDS011;40964;42.114;24.220;2022-12-20T16:14:04;7.53;;;4.13;;
55065;SDS011;40964;42.114;24.220;2022-12-20T16:16:34;11.07;;;5.53;;
55065;SDS011;40964;42.114;24.220;2022-12-20T16:19:01;12.77;;;6.95;;
55065;SDS011;40964;42.114;24.220;2022-12-20T16:21:31;11.50;;;5.15;;
55065;SDS011;40964;42.114;24.220;2022-12-20T16:24:01;14.95;;;6.28;;
55065;SDS011;40964;42.114;24.220;2022-12-20T16:26:30;16.05;;;6.90;;
55065;SDS011;40964;42.114;24.220;2022-12-20T16:28:55;12.65;;;6.57;;
55065;SDS011;40964;42.114;24.220;2022-12-20T16:33:49;9.75;;;5.00;;
55065;SDS011;40964;42.114;24.220;2022-12-20T16:36:15;12.75;;;5.25;;
55065;SDS011;40964;42.114;24.220;2022-12-20T16:38:41;10.77;;;4.10;;
55065;SDS011;40964;42.114;24.220;2022-12-20T16:41:10;10.65;;;5.13;;
55065;SDS011;40964;42.114;24.220;2022-12-20T16:43:44;11.13;;;4.53;;
55065;SDS011;40964;42.114;24.220;2022-12-20T16:46:14;15.88;;;7.32;;
55065;SDS011;40964;42.114;24.220;2022-12-20T16:48:42;11.50;;;7.05;;